Time;durP1;ratioP1;P1;durP2;ratioP2;P2;SDS_P1;SDS_P2;PMS_P1;PMS_P2;Temp;Humidity;BMP_temperature;BMP_pressure;BME280_temperature;BME280_humidity;BME280_pressure;Samples;Min_cycle;Max_cycle;Signal;HPM_P1;HPM_P2
2023/08/30 00:00:14;;;;;;;;;;;;;;;19.65;54.22;100730.75;4194821;28;20312;-65
2023/08/30 00:02:16;;;;;;;;;;;;;;;19.63;54.33;100725.53;4194734;28;19935;-65
2023/08/30 00:04:17;;;;;;;;;;;;;;;19.61;54.56;100716.81;4194947;28;20350;-65
2023/08/30 00:06:19;;;;;;;;;;;;;;;19.61;54.82;100713.25;4193414;28;20027;-66
2023/08/30 00:08:21;;;;;;;;;;;;;;;19.60;54.78;100717.75;4194359;28;19932;-66
2023/08/30 00:10:22;;;;;;;;;;;;;;;19.60;54.82;100716.88;4194838;28;20298;-65
2023/08/30 00:12:24;;;;;;;;;;;;;;;19.58;54.64;100719.69;4194259;28;19924;-65
2023/08/30 00:14:26;;;;;;;;;;;;;;;19.60;54.43;100724.88;4194720;28;20366;-66
2023/08/30 00:16:28;;;;;;;;;;;;;;;19.57;54.52;100717.97;4193271;27;20003;-66
2023/08/30 00:18:29;;;;;;;;;;;;;;;19.58;54.28;100714.34;4194294;28;19973;-65
2023/08/30 00:20:32;;;;;;;;;;;;;;;19.57;54.70;100711.78;4194308;28;20028;-66
2023/08/30 00:22:33;;;;;;;;;;;;;;;19.57;54.84;100703.78;4194333;28;19975;-66
2023/08/30 00:24:35;;;;;;;;;;;;;;;19.57;54.74;100706.47;4194487;28;20348;-66
2023/08/30 00:26:37;;;;;;;;;;;;;;;19.55;54.91;100695.91;4193621;28;19932;-66
2023/08/30 00:28:38;;;;;;;;;;;;;;;19.56;54.86;100699.41;4194428;28;20088;-66
2023/08/30 00:30:40;;;;;;;;;;;;;;;19.55;54.51;100695.91;4194497;28;19929;-66
2023/08/30 00:32:41;;;;;;;;;;;;;;;19.55;54.77;100695.03;4194339;28;19925;-65
2023/08/30 00:34:43;;;;;;;;;;;;;;;19.55;54.78;100692.38;4194258;28;19931;-65
2023/08/30 00:36:44;;;;;;;;;;;;;;;19.54;54.91;100690.66;4193525;28;19924;-65
2023/08/30 00:38:46;;;;;;;;;;;;;;;19.54;55.09;100685.34;4194241;28;19925;-65
2023/08/30 00:40:48;;;;;;;;;;;;;;;19.54;54.96;100680.00;4194209;28;19946;-65
2023/08/30 00:42:49;;;;;;;;;;;;;;;19.54;54.75;100680.00;4194448;28;20011;-65
2023/08/30 00:44:50;;;;;;;;;;;;;;;19.54;54.86;100682.66;4194350;28;19932;-66
2023/08/30 00:46:52;;;;;;;;;;;;;;;19.53;54.62;100681.81;4193534;28;19977;-65
2023/08/30 00:48:54;;;;;;;;;;;;;;;19.53;54.92;100673.00;4194179;28;20463;-65
2023/08/30 00:50:55;;;;;;;;;;;;;;;19.53;55.02;100675.66;4193978;28;19924;-65
2023/08/30 00:52:57;;;;;;;;;;;;;;;19.53;54.91;100673.81;4194178;28;19924;-65
2023/08/30 00:54:59;;;;;;;;;;;;;;;19.52;55.00;100666.78;4194289;28;20336;-65
2023/08/30 00:57:01;;;;;;;;;;;;;;;19.52;54.61;100674.78;4193262;27;19973;-65
2023/08/30 00:59:03;;;;;;;;;;;;;;;19.52;54.90;100669.44;4193895;28;19929;-65
2023/08/30 01:01:07;;;;;;;;;;;;;;;19.52;54.96;100671.28;4194194;28;20019;-65
2023/08/30 01:03:09;;;;;;;;;;;;;;;19.52;54.97;100668.63;4194179;28;20092;-65
2023/08/30 01:05:11;;;;;;;;;;;;;;;19.52;54.88;100664.13;4193443;28;19925;-65
2023/08/30 01:07:13;;;;;;;;;;;;;;;19.52;54.83;100665.94;4193175;28;19960;-65
2023/08/30 01:09:16;;;;;;;;;;;;;;;19.53;54.96;100654.31;4194072;28;20011;-66
2023/08/30 01:11:24;;;;;;;;;;;;;;;19.51;54.63;100651.75;4194080;28;19963;-66
2023/08/30 01:13:27;;;;;;;;;;;;;;;19.52;54.62;100656.13;4194052;28;19925;-65
2023/08/30 01:15:29;;;;;;;;;;;;;;;19.53;54.81;100651.66;4193872;28;19932;-64
2023/08/30 01:17:37;;;;;;;;;;;;;;;19.51;55.08;100650.91;4192721;28;19931;-65
2023/08/30 01:19:49;;;;;;;;;;;;;;;19.51;55.02;100648.22;4193638;28;19924;-65
2023/08/30 01:21:56;;;;;;;;;;;;;;;19.51;55.05;100646.41;4193911;28;19925;-65
2023/08/30 01:24:03;;;;;;;;;;;;;;;19.51;54.67;100646.41;4193985;28;19925;-65
2023/08/30 01:26:12;;;;;;;;;;;;;;;19.51;54.98;100641.06;4196637;28;19925;-65
2023/08/30 01:28:16;;;;;;;;;;;;;;;19.50;54.85;100635.84;4195904;28;20406;-64
2023/08/30 01:30:18;;;;;;;;;;;;;;;19.50;54.59;100635.84;4197023;28;19929;-65
2023/08/30 01:32:22;;;;;;;;;;;;;;;19.50;54.64;100638.53;4196600;28;20023;-65
2023/08/30 01:34:25;;;;;;;;;;;;;;;19.49;54.68;100629.69;4196539;28;19924;-65
2023/08/30 01:36:27;;;;;;;;;;;;;;;19.50;54.87;100638.53;4195893;28;19969;-66
2023/08/30 01:38:29;;;;;;;;;;;;;;;19.48;54.72;100633.31;4196405;27;19970;-65
2023/08/30 01:40:33;;;;;;;;;;;;;;;19.49;54.69;100635.03;4196740;28;19954;-65
2023/08/30 01:42:36;;;;;;;;;;;;;;;19.49;54.65;100632.34;4196724;28;19924;-65
2023/08/30 01:44:38;;;;;;;;;;;;;;;19.48;54.59;100631.47;4196752;28;20011;-66
2023/08/30 01:46:40;;;;;;;;;;;;;;;19.48;54.82;100627.97;4195833;28;19924;-65
2023/08/30 01:48:42;;;;;;;;;;;;;;;19.47;54.67;100627.09;4196094;28;19929;-65
2023/08/30 01:50:43;;;;;;;;;;;;;;;19.48;54.93;100614.63;4196584;28;19977;-65
2023/08/30 01:52:46;;;;;;;;;;;;;;;19.47;54.86;100627.09;4196561;28;19931;-65
2023/08/30 01:54:48;;;;;;;;;;;;;;;19.47;54.86;100612.94;4196744;28;19932;-65
2023/08/30 01:56:49;;;;;;;;;;;;;;;19.47;54.90;100615.59;4177912;28;19947;-65
2023/08/30 01:58:51;;;;;;;;;;;;;;;19.47;54.87;100619.09;4196465;28;20390;-65
2023/08/30 02:00:52;;;;;;;;;;;;;;;19.48;54.73;100622.66;4196308;28;20027;-65
2023/08/30 02:02:54;;;;;;;;;;;;;;;19.45;54.90;100613.06;4196022;28;19925;-64
2023/08/30 02:04:56;;;;;;;;;;;;;;;19.46;54.93;100620.06;4196375;28;19924;-65
2023/08/30 02:07:00;;;;;;;;;;;;;;;19.44;55.00;100616.69;4195493;28;19924;-65
2023/08/30 02:09:04;;;;;;;;;;;;;;;19.44;54.85;100614.03;4196312;28;19929;-66
2023/08/30 02:11:07;;;;;;;;;;;;;;;19.44;54.87;100611.34;4211829;28;20022;-65
2023/08/30 02:13:10;;;;;;;;;;;;;;;19.44;54.96;100606.03;4196068;28;19997;-65
2023/08/30 02:15:13;;;;;;;;;;;;;;;19.45;55.00;100613.06;4196230;28;19936;-65
2023/08/30 02:17:15;;;;;;;;;;;;;;;19.43;54.89;100612.31;4194724;28;19936;-65
2023/08/30 02:19:20;;;;;;;;;;;;;;;19.42;54.73;100605.28;4196150;28;19928;-65
2023/08/30 02:21:22;;;;;;;;;;;;;;;19.45;54.98;100612.19;4195978;28;19929;-65
2023/08/30 02:23:25;;;;;;;;;;;;;;;19.43;54.68;100619.44;4196314;28;19968;-65
2023/08/30 02:25:26;;;;;;;;;;;;;;;19.43;54.80;100606.97;4196142;28;20357;-65
2023/08/30 02:27:28;;;;;;;;;;;;;;;19.42;54.93;100610.59;4195012;28;19928;-65
2023/08/30 02:29:30;;;;;;;;;;;;;;;19.44;54.80;100611.34;4196052;28;20356;-64
2023/08/30 02:31:31;;;;;;;;;;;;;;;19.43;54.69;100608.78;4195832;28;20469;-65
2023/08/30 02:33:33;;;;;;;;;;;;;;;19.42;54.82;100601.78;4211456;28;19924;-65
2023/08/30 02:35:34;;;;;;;;;;;;;;;19.41;54.88;100600.91;4196102;28;19925;-65
2023/08/30 02:37:36;;;;;;;;;;;;;;;19.42;54.51;100602.59;4194849;28;20335;-64
2023/08/30 02:39:38;;;;;;;;;;;;;;;19.41;54.74;100602.72;4195903;28;19973;-65
2023/08/30 02:41:40;;;;;;;;;;;;;;;19.41;54.62;100595.56;4195866;28;19937;-65
2023/08/30 02:43:41;;;;;;;;;;;;;;;19.40;54.64;100590.34;4196052;28;19924;-64
2023/08/30 02:45:43;;;;;;;;;;;;;;;19.40;54.63;100591.19;4195705;28;19928;-64
2023/08/30 02:47:44;;;;;;;;;;;;;;;19.41;54.88;100592.06;4194836;28;19986;-65
2023/08/30 02:49:47;;;;;;;;;;;;;;;19.41;54.92;100598.22;4195952;27;19950;-65
2023/08/30 02:51:48;;;;;;;;;;;;;;;19.40;54.84;100596.53;4195804;28;19925;-65
2023/08/30 02:53:50;;;;;;;;;;;;;;;19.40;54.52;100598.34;4195724;28;19986;-65
2023/08/30 02:55:55;;;;;;;;;;;;;;;19.40;54.82;100593.03;4195820;28;19925;-66
2023/08/30 02:57:56;;;;;;;;;;;;;;;19.39;54.73;100594.81;4194617;28;19946;-65
2023/08/30 02:59:58;;;;;;;;;;;;;;;19.38;54.47;100593.16;4195329;28;20286;-65
2023/08/30 03:01:59;;;;;;;;;;;;;;;19.39;54.63;100596.66;4195583;28;19978;-65
2023/08/30 03:04:01;;;;;;;;;;;;;;;19.39;54.68;100597.50;4195530;28;20278;-65
2023/08/30 03:06:03;;;;;;;;;;;;;;;19.37;54.91;100602.09;4211073;28;19935;-65
2023/08/30 03:08:04;;;;;;;;;;;;;;;19.38;54.85;100600.28;4194561;28;20296;-65
2023/08/30 03:10:06;;;;;;;;;;;;;;;19.38;54.59;100602.94;4195454;28;19925;-65
2023/08/30 03:12:07;;;;;;;;;;;;;;;19.37;54.67;100607.44;4195518;28;20301;-65
2023/08/30 03:14:09;;;;;;;;;;;;;;;19.37;54.77;100595.91;4194985;28;19924;-65
2023/08/30 03:16:11;;;;;;;;;;;;;;;19.36;54.77;100602.22;4195418;28;19948;-65
2023/08/30 03:18:12;;;;;;;;;;;;;;;19.37;54.74;100606.56;4161539;28;20024;-65
2023/08/30 03:20:14;;;;;;;;;;;;;;;19.36;54.72;100602.22;4162308;28;20013;-65
2023/08/30 03:22:16;;;;;;;;;;;;;;;19.36;54.57;100604.91;4162356;28;20059;-66
2023/08/30 03:24:17;;;;;;;;;;;;;;;19.35;54.79;100604.03;4160983;28;20008;-66
2023/08/30 03:26:19;;;;;;;;;;;;;;;19.35;54.88;100597.84;4162419;28;19932;-66
2023/08/30 03:28:21;;;;;;;;;;;;;;;19.34;54.66;100594.31;4161287;28;19970;-66
2023/08/30 03:30:22;;;;;;;;;;;;;;;19.33;54.79;100589.94;4162092;28;19929;-66
2023/08/30 03:32:24;;;;;;;;;;;;;;;19.34;54.49;100588.16;4162193;28;19925;-66
2023/08/30 03:34:26;;;;;;;;;;;;;;;19.34;54.87;100586.31;4162016;28;20398;-66
2023/08/30 03:36:27;;;;;;;;;;;;;;;19.35;54.82;100581.84;4162154;28;19947;-64
2023/08/30 03:38:29;;;;;;;;;;;;;;;19.34;54.82;100581.00;4161077;28;19967;-65
2023/08/30 03:40:30;;;;;;;;;;;;;;;19.31;54.78;100582.06;4162065;28;19925;-65
2023/08/30 03:42:32;;;;;;;;;;;;;;;19.31;54.77;100576.75;4162133;28;19925;-65
2023/08/30 03:44:34;;;;;;;;;;;;;;;19.31;54.69;100579.41;4161845;28;19927;-65
2023/08/30 03:46:39;;;;;;;;;;;;;;;19.31;54.85;100584.75;4161923;28;19977;-65
2023/08/30 03:48:40;;;;;;;;;;;;;;;19.33;54.57;100584.63;4160555;28;19925;-65
2023/08/30 03:50:42;;;;;;;;;;;;;;;19.31;54.70;100578.56;4162065;28;19925;-66
2023/08/30 03:52:44;;;;;;;;;;;;;;;19.30;54.89;100575.03;4162154;28;19926;-65
2023/08/30 03:54:45;;;;;;;;;;;;;;;19.30;54.85;100580.38;4161685;28;20019;-65
2023/08/30 03:56:47;;;;;;;;;;;;;;;19.30;54.98;100585.69;4161928;28;19936;-65
2023/08/30 03:58:48;;;;;;;;;;;;;;;19.30;54.92;100582.19;4160937;28;20306;-65
2023/08/30 04:00:50;;;;;;;;;;;;;;;19.30;54.98;100580.38;4161714;28;20410;-65
2023/08/30 04:02:51;;;;;;;;;;;;;;;19.29;55.00;100573.31;4161833;28;20347;-65
2023/08/30 04:04:53;;;;;;;;;;;;;;;19.29;54.97;100576.00;4161664;28;19955;-65
2023/08/30 04:06:55;;;;;;;;;;;;;;;19.29;54.95;100575.16;4161155;28;19947;-66
2023/08/30 04:08:56;;;;;;;;;;;;;;;19.28;54.97;100573.44;4161670;28;19925;-66
2023/08/30 04:10:58;;;;;;;;;;;;;;;19.29;55.04;100567.16;4161612;28;20011;-65
2023/08/30 04:12:59;;;;;;;;;;;;;;;19.28;55.09;100571.66;4161340;28;19925;-66
2023/08/30 04:15:02;;;;;;;;;;;;;;;19.28;54.97;100566.31;4161389;28;19937;-66
2023/08/30 04:17:03;;;;;;;;;;;;;;;19.27;54.78;100564.63;4174736;28;19928;-65
2023/08/30 04:19:05;;;;;;;;;;;;;;;19.28;55.07;100570.78;4194324;27;19925;-66
2023/08/30 04:21:08;;;;;;;;;;;;;;;19.28;54.73;100565.44;4194658;28;19989;-65
2023/08/30 04:23:09;;;;;;;;;;;;;;;19.27;54.90;100563.75;4194253;28;19925;-66
2023/08/30 04:25:11;;;;;;;;;;;;;;;19.27;55.13;100561.06;4194599;28;19924;-65
2023/08/30 04:27:13;;;;;;;;;;;;;;;19.27;55.00;100566.41;4193149;28;19929;-66
2023/08/30 04:29:14;;;;;;;;;;;;;;;19.25;55.09;100555.88;4194131;28;19930;-66
2023/08/30 04:31:16;;;;;;;;;;;;;;;19.25;55.24;100553.19;4194517;28;19928;-65
2023/08/30 04:33:17;;;;;;;;;;;;;;;19.26;55.15;100552.25;4194486;28;19924;-65
2023/08/30 04:35:19;;;;;;;;;;;;;;;19.25;55.00;100547.88;4194429;28;19963;-65
2023/08/30 04:37:20;;;;;;;;;;;;;;;19.25;55.19;100545.22;4193486;28;19928;-65
2023/08/30 04:39:22;;;;;;;;;;;;;;;19.25;55.08;100544.38;4194421;28;20309;-66
2023/08/30 04:41:24;;;;;;;;;;;;;;;19.25;55.27;100547.03;4194202;28;20392;-65
2023/08/30 04:43:25;;;;;;;;;;;;;;;19.25;55.24;100541.69;4194382;28;19931;-66
2023/08/30 04:45:27;;;;;;;;;;;;;;;19.25;54.89;100550.53;4194388;28;20019;-65
2023/08/30 04:47:29;;;;;;;;;;;;;;;19.24;55.23;100543.50;4193517;28;20089;-65
2023/08/30 04:49:31;;;;;;;;;;;;;;;19.24;55.32;100540.00;4194329;28;19929;-65
2023/08/30 04:51:32;;;;;;;;;;;;;;;19.25;55.07;100541.69;4194474;28;20337;-66
2023/08/30 04:53:34;;;;;;;;;;;;;;;19.25;55.41;100539.03;4194218;28;19951;-65
2023/08/30 04:55:36;;;;;;;;;;;;;;;19.25;55.08;100544.38;4193986;28;19928;-65
2023/08/30 04:57:37;;;;;;;;;;;;;;;19.24;55.29;100545.34;4193427;28;19925;-66
2023/08/30 04:59:39;;;;;;;;;;;;;;;19.24;55.23;100546.16;4194725;28;19978;-65
2023/08/30 05:01:44;;;;;;;;;;;;;;;19.23;55.44;100544.47;4197192;28;19924;-66
2023/08/30 05:03:45;;;;;;;;;;;;;;;19.23;55.38;100540.97;4197173;28;20448;-65
2023/08/30 05:05:47;;;;;;;;;;;;;;;19.24;55.39;100534.66;4197221;28;19925;-65
2023/08/30 05:07:48;;;;;;;;;;;;;;;19.23;55.60;100535.63;4196404;28;19962;-64
2023/08/30 05:09:50;;;;;;;;;;;;;;;19.24;55.46;100524.84;4197126;28;19924;-65
2023/08/30 05:11:52;;;;;;;;;;;;;;;19.23;55.53;100533.78;4196932;28;19952;-64
2023/08/30 05:13:54;;;;;;;;;;;;;;;19.23;55.50;100533.78;4196999;28;20416;-65
2023/08/30 05:15:55;;;;;;;;;;;;;;;19.22;55.51;100525.91;4197109;28;19962;-65
2023/08/30 05:17:57;;;;;;;;;;;;;;;19.22;55.20;100528.59;4195768;27;19928;-64
2023/08/30 05:19:59;;;;;;;;;;;;;;;19.23;55.41;100530.28;4197007;28;19924;-65
2023/08/30 05:22:00;;;;;;;;;;;;;;;19.21;55.65;100525.09;4196970;28;20301;-65
2023/08/30 05:24:02;;;;;;;;;;;;;;;19.22;55.60;100523.25;4196934;28;20342;-66
2023/08/30 05:26:04;;;;;;;;;;;;;;;19.22;55.25;100529.44;4196666;28;19928;-65
2023/08/30 05:28:05;;;;;;;;;;;;;;;19.22;55.36;100529.44;4195659;28;19928;-65
2023/08/30 05:30:08;;;;;;;;;;;;;;;19.21;55.75;100527.75;4196808;28;20381;-65
2023/08/30 05:32:09;;;;;;;;;;;;;;;19.21;55.56;100533.09;4196959;28;19928;-65
2023/08/30 05:34:11;;;;;;;;;;;;;;;19.22;55.37;100533.91;4196873;28;20011;-64
2023/08/30 05:36:12;;;;;;;;;;;;;;;19.22;55.24;100531.25;4196610;28;19935;-65
2023/08/30 05:38:14;;;;;;;;;;;;;;;19.20;55.72;100534.03;4195578;28;19950;-64
2023/08/30 05:40:16;;;;;;;;;;;;;;;19.21;55.28;100533.09;4196346;28;20022;-65
2023/08/30 05:42:18;;;;;;;;;;;;;;;19.21;55.46;100525.09;4196522;28;19924;-65
2023/08/30 05:44:20;;;;;;;;;;;;;;;19.21;55.62;100535.75;4196801;28;19966;-65
2023/08/30 05:46:21;;;;;;;;;;;;;;;19.21;55.69;100538.41;4196575;28;20411;-66
2023/08/30 05:48:23;;;;;;;;;;;;;;;19.21;55.73;100537.53;4195353;28;20035;-65
2023/08/30 05:50:24;;;;;;;;;;;;;;;19.21;55.52;100543.75;4196566;28;19928;-66
2023/08/30 05:52:26;;;;;;;;;;;;;;;19.20;55.50;100542.03;4196294;28;19932;-65
2023/08/30 05:54:29;;;;;;;;;;;;;;;19.20;55.72;100539.38;4196191;28;19931;-65
2023/08/30 05:56:31;;;;;;;;;;;;;;;19.19;55.99;100537.66;4196320;28;19948;-65
2023/08/30 05:58:32;;;;;;;;;;;;;;;19.20;56.04;100544.72;4195617;28;20353;-66
2023/08/30 06:00:34;;;;;;;;;;;;;;;19.20;55.89;100538.50;4196411;28;19924;-66
2023/08/30 06:02:35;;;;;;;;;;;;;;;19.18;55.69;100538.63;4196363;28;19932;-66
2023/08/30 06:04:37;;;;;;;;;;;;;;;19.19;55.94;100547.47;4196461;28;20313;-65
2023/08/30 06:06:38;;;;;;;;;;;;;;;19.18;55.94;100543.97;4196093;28;20027;-67
2023/08/30 06:08:40;;;;;;;;;;;;;;;19.18;55.88;100545.78;4194916;28;20063;-66
2023/08/30 06:10:42;;;;;;;;;;;;;;;19.18;55.71;100549.28;4196128;28;19931;-66
2023/08/30 06:12:43;;;;;;;;;;;;;;;19.18;55.85;100551.97;4211770;28;19924;-66
2023/08/30 06:14:50;;;;;;;;;;;;;;;19.18;55.67;100549.28;4196160;28;19973;-67
2023/08/30 06:16:51;;;;;;;;;;;;;;;19.18;55.98;100551.97;4196203;27;19957;-67
2023/08/30 06:18:53;;;;;;;;;;;;;;;19.19;56.08;100547.47;4195064;28;19974;-67
2023/08/30 06:20:55;;;;;;;;;;;;;;;19.18;55.84;100541.28;4196163;28;20314;-66
2023/08/30 06:23:02;;;;;;;;;;;;;;;19.19;55.69;100553.66;4195685;28;19971;-66
2023/08/30 06:25:04;;;;;;;;;;;;;;;19.19;56.01;100547.47;4195989;28;19931;-67
2023/08/30 06:27:06;;;;;;;;;;;;;;;19.19;56.24;100550.13;4195994;28;20448;-67
2023/08/30 06:29:07;;;;;;;;;;;;;;;19.19;56.18;100553.66;4195052;28;19924;-66
2023/08/30 06:31:09;;;;;;;;;;;;;;;19.21;56.23;100550.88;4196142;28;19925;-67
2023/08/30 06:33:10;;;;;;;;;;;;;;;19.19;56.03;100555.47;4195925;28;19931;-67
2023/08/30 06:35:12;;;;;;;;;;;;;;;19.19;56.23;100556.34;4196044;28;19947;-67
2023/08/30 06:37:13;;;;;;;;;;;;;;;19.19;56.18;100556.34;4195677;28;19931;-66
2023/08/30 06:39:15;;;;;;;;;;;;;;;19.19;56.31;100550.13;4195244;28;19935;-67
2023/08/30 06:41:16;;;;;;;;;;;;;;;19.18;55.98;100546.63;4195789;28;19925;-66
2023/08/30 06:43:18;;;;;;;;;;;;;;;19.19;56.17;100548.34;4211408;28;19970;-67
2023/08/30 06:45:20;;;;;;;;;;;;;;;19.19;56.00;100551.00;4195918;28;20011;-66
2023/08/30 06:47:21;;;;;;;;;;;;;;;19.20;56.19;100546.50;4195654;28;20361;-67
2023/08/30 06:49:23;;;;;;;;;;;;;;;19.20;56.23;100549.16;4195124;28;19969;-66
2023/08/30 06:51:25;;;;;;;;;;;;;;;19.21;56.28;100557.06;4195799;28;19947;-66
2023/08/30 06:53:26;;;;;;;;;;;;;;;19.19;56.33;100551.00;4195515;28;20339;-67
2023/08/30 06:55:28;;;;;;;;;;;;;;;19.20;56.10;100560.69;4195830;28;19931;-66
2023/08/30 06:57:30;;;;;;;;;;;;;;;19.20;55.99;100560.69;4194951;28;19932;-67
2023/08/30 06:59:31;;;;;;;;;;;;;;;19.21;56.32;100561.53;4195371;28;19928;-67
2023/08/30 07:01:33;;;;;;;;;;;;;;;19.19;56.33;100559.00;4195588;28;20281;-66
2023/08/30 07:03:37;;;;;;;;;;;;;;;19.19;56.31;100564.34;4195506;28;19925;-67
2023/08/30 07:05:38;;;;;;;;;;;;;;;19.20;56.28;100570.50;4195532;28;19925;-67
2023/08/30 07:07:40;;;;;;;;;;;;;;;19.19;56.32;100568.78;4194583;28;19925;-66
2023/08/30 07:09:42;;;;;;;;;;;;;;;19.19;56.18;100568.78;4195351;28;19924;-66
2023/08/30 07:11:47;;;;;;;;;;;;;;;19.20;56.35;100566.03;4195488;28;19925;-67
2023/08/30 07:13:48;;;;;;;;;;;;;;;19.19;56.31;100567.00;4195605;28;20024;-66
2023/08/30 07:15:50;;;;;;;;;;;;;;;19.19;56.38;100569.66;4195473;28;19985;-66
2023/08/30 07:17:52;;;;;;;;;;;;;;;19.20;56.18;100565.16;4176501;28;20405;-66
2023/08/30 07:19:56;;;;;;;;;;;;;;;19.19;56.38;100568.78;4195330;28;19932;-66
2023/08/30 07:21:58;;;;;;;;;;;;;;;19.19;56.34;100561.66;4194462;28;19932;-65
2023/08/30 07:23:59;;;;;;;;;;;;;;;19.20;56.30;100566.03;4195135;28;19939;-65
2023/08/30 07:26:01;;;;;;;;;;;;;;;19.21;56.39;100570.41;4195210;28;19925;-66
2023/08/30 07:28:03;;;;;;;;;;;;;;;19.22;56.44;100565.91;4194575;28;19924;-66
2023/08/30 07:30:05;;;;;;;;;;;;;;;19.21;56.43;100564.22;4195297;28;20030;-66
2023/08/30 07:32:07;;;;;;;;;;;;;;;19.22;56.35;100566.75;4195082;28;19924;-66
2023/08/30 07:34:08;;;;;;;;;;;;;;;19.22;56.38;100563.25;4195222;28;19947;-67
2023/08/30 07:36:11;;;;;;;;;;;;;;;19.22;56.35;100571.25;4194935;28;19924;-66
2023/08/30 07:38:12;;;;;;;;;;;;;;;19.22;56.24;100558.75;4194302;28;19963;-67
2023/08/30 07:40:14;;;;;;;;;;;;;;;19.22;56.36;100564.09;4195162;28;19964;-66
2023/08/30 07:42:15;;;;;;;;;;;;;;;19.23;56.41;100563.13;4194876;28;19928;-66
2023/08/30 07:44:17;;;;;;;;;;;;;;;19.23;56.23;100563.13;4195082;28;19935;-66
2023/08/30 07:46:19;;;;;;;;;;;;;;;19.23;56.13;100563.13;4194928;28;19925;-67
2023/08/30 07:48:20;;;;;;;;;;;;;;;19.25;56.34;100565.69;4194017;28;19980;-66
2023/08/30 07:50:22;;;;;;;;;;;;;;;19.28;55.91;100565.44;4194557;28;20402;-66
2023/08/30 07:52:23;;;;;;;;;;;;;;;19.28;56.32;100571.66;4194911;28;20023;-66
2023/08/30 07:54:43;;;;;;;;;;;;;;;19.30;56.06;100560.88;4194999;28;20436;-66
2023/08/30 07:56:45;;;;;;;;;;;;;;;19.31;56.09;100571.41;4194760;28;19925;-66
2023/08/30 07:58:46;;;;;;;;;;;;;;;19.28;56.16;100566.31;4193853;28;19924;-67
2023/08/30 08:00:54;;;;;;;;;;;;;;;19.28;56.10;100573.44;4194852;28;20347;-65
2023/08/30 08:02:56;;;;;;;;;;;;;;;19.28;55.92;100568.13;4194577;28;20449;-65
2023/08/30 08:04:57;;;;;;;;;;;;;;;19.27;56.17;100572.63;4194538;28;19925;-66
2023/08/30 08:06:59;;;;;;;;;;;;;;;19.28;56.01;100565.44;4193254;28;20252;-66
2023/08/30 08:09:02;;;;;;;;;;;;;;;19.28;55.84;100568.13;4193898;28;19977;-66
2023/08/30 08:11:04;;;;;;;;;;;;;;;19.27;56.03;100559.28;4194670;28;19977;-64
2023/08/30 08:13:05;;;;;;;;;;;;;;;19.27;56.26;100555.75;4194483;28;20358;-64
2023/08/30 08:15:07;;;;;;;;;;;;;;;19.29;56.04;100564.50;4194385;28;19939;-64
2023/08/30 08:17:09;;;;;;;;;;;;;;;19.28;56.39;100550.31;4194416;28;19924;-65
2023/08/30 08:19:12;;;;;;;;;;;;;;;19.32;56.31;100561.59;4193438;28;20436;-65
2023/08/30 08:21:14;;;;;;;;;;;;;;;19.36;56.65;100557.72;4194508;28;19925;-65
2023/08/30 08:23:15;;;;;;;;;;;;;;;19.39;56.44;100559.31;4194691;28;19929;-64
2023/08/30 08:25:17;;;;;;;;;;;;;;;19.40;56.81;100561.03;4194592;28;20020;-64
2023/08/30 08:27:18;;;;;;;;;;;;;;;19.39;56.48;100559.31;4194630;28;19924;-65
2023/08/30 08:29:20;;;;;;;;;;;;;;;19.43;56.76;100569.63;4193629;28;19999;-65
2023/08/30 08:31:22;;;;;;;;;;;;;;;19.44;56.73;100563.34;4194671;28;19924;-64
2023/08/30 08:33:24;;;;;;;;;;;;;;;19.46;56.87;100569.38;4194492;28;20378;-63
2023/08/30 08:35:25;;;;;;;;;;;;;;;19.52;57.45;100575.25;4195047;28;19929;-62
2023/08/30 08:37:27;;;;;;;;;;;;;;;19.64;57.12;100572.47;4194882;27;19924;-63
2023/08/30 08:39:30;;;;;;;;;;;;;;;19.65;56.61;100570.69;4196241;28;19932;-61
2023/08/30 08:41:39;;;;;;;;;;;;;;;19.61;56.28;100582.53;4197415;27;19928;-61
2023/08/30 08:43:42;;;;;;;;;;;;;;;19.70;56.90;100583.69;4213222;28;19924;-62
2023/08/30 08:45:45;;;;;;;;;;;;;;;19.79;56.33;100580.28;4202054;28;19924;-63
2023/08/30 08:47:46;;;;;;;;;;;;;;;19.86;56.28;100578.88;4196305;28;19956;-62
2023/08/30 08:49:49;;;;;;;;;;;;;;;19.93;55.84;100579.28;4196535;28;19928;-62
2023/08/30 08:51:50;;;;;;;;;;;;;;;19.99;55.48;100577.91;4196839;28;19932;-64
2023/08/30 08:53:54;;;;;;;;;;;;;;;20.04;54.93;100568.59;4197952;28;19932;-62
2023/08/30 08:55:58;;;;;;;;;;;;;;;20.09;54.80;100574.41;4197082;28;19935;-64
2023/08/30 08:57:59;;;;;;;;;;;;;;;20.16;54.82;100576.59;4207739;28;20360;-63
2023/08/30 09:00:01;;;;;;;;;;;;;;;20.20;55.18;100573.56;4201999;28;19965;-60
2023/08/30 09:02:03;;;;;;;;;;;;;;;20.26;54.37;100578.44;4190535;28;20339;-63
2023/08/30 09:04:06;;;;;;;;;;;;;;;20.43;54.30;100582.44;4191397;28;20411;-66
2023/08/30 09:06:08;;;;;;;;;;;;;;;20.55;53.21;100583.28;4184858;28;19932;-65
2023/08/30 09:08:11;;;;;;;;;;;;;;;20.65;52.86;100575.38;4179888;28;19952;-65
2023/08/30 09:10:13;;;;;;;;;;;;;;;20.74;53.06;100574.69;4191353;28;19928;-61
2023/08/30 09:12:14;;;;;;;;;;;;;;;20.83;53.10;100569.56;4197266;28;20521;-63
2023/08/30 09:14:16;;;;;;;;;;;;;;;20.89;52.83;100574.41;4196904;28;19924;-66
2023/08/30 09:16:18;;;;;;;;;;;;;;;20.95;52.50;100581.06;4196788;28;20016;-66
2023/08/30 09:18:20;;;;;;;;;;;;;;;20.99;51.79;100580.69;4195785;28;19963;-64
2023/08/30 09:20:21;;;;;;;;;;;;;;;21.02;52.15;100583.13;4197050;28;20015;-65
2023/08/30 09:22:23;;;;;;;;;;;;;;;21.07;51.76;100580.06;4196932;28;19924;-64
2023/08/30 09:24:25;;;;;;;;;;;;;;;21.12;52.13;100590.38;4196782;28;20015;-62
2023/08/30 09:26:31;;;;;;;;;;;;;;;21.18;51.00;100580.03;4197172;28;19967;-67
2023/08/30 09:28:41;;;;;;;;;;;;;;;21.16;51.25;100578.47;4198441;28;19929;-66
2023/08/30 09:30:48;;;;;;;;;;;;;;;21.23;51.53;100577.81;4196820;28;19955;-61
2023/08/30 09:32:50;;;;;;;;;;;;;;;21.27;50.54;100580.25;4196450;28;19928;-65
2023/08/30 09:34:51;;;;;;;;;;;;;;;21.35;51.00;100578.63;4196810;28;20038;-62
2023/08/30 09:36:54;;;;;;;;;;;;;;;21.36;51.03;100576.78;4198567;28;20016;-62
2023/08/30 09:38:58;;;;;;;;;;;;;;;21.39;50.40;100568.53;4212246;28;19935;-66
2023/08/30 09:41:04;;;;;;;;;;;;;;;21.47;49.88;100570.53;4213412;28;19924;-65
2023/08/30 09:43:05;;;;;;;;;;;;;;;21.50;49.54;100573.81;4213411;28;19924;-66
2023/08/30 09:45:18;;;;;;;;;;;;;;;21.52;49.41;100579.06;4204440;28;20298;-64
2023/08/30 09:47:20;;;;;;;;;;;;;;;21.53;49.08;100578.03;4181972;28;19929;-65
2023/08/30 09:49:23;;;;;;;;;;;;;;;21.58;49.72;100580.38;4194789;28;19930;-66
2023/08/30 09:51:26;;;;;;;;;;;;;;;21.59;49.33;100574.03;4196633;28;20338;-62
2023/08/30 09:53:29;;;;;;;;;;;;;;;21.58;49.34;100575.03;4196805;28;20155;-64
2023/08/30 09:55:31;;;;;;;;;;;;;;;21.54;49.46;100569.03;4196570;28;19928;-65
2023/08/30 09:57:33;;;;;;;;;;;;;;;21.57;49.06;100571.50;4196450;28;19964;-65
2023/08/30 09:59:38;;;;;;;;;;;;;;;21.62;49.24;100563.09;4195487;28;20000;-61
2023/08/30 10:01:40;;;;;;;;;;;;;;;21.67;48.75;100560.88;4195994;28;19924;-59
2023/08/30 10:03:42;;;;;;;;;;;;;;;21.68;49.29;100560.72;4196218;28;19971;-65
2023/08/30 10:05:44;;;;;;;;;;;;;;;21.71;48.73;100559.63;4196522;28;20341;-65
2023/08/30 10:07:52;;;;;;;;;;;;;;;21.67;48.79;100567.06;4195257;28;20004;-62
2023/08/30 10:09:54;;;;;;;;;;;;;;;21.68;48.33;100559.88;4195333;28;19924;-64
2023/08/30 10:12:04;;;;;;;;;;;;;;;21.72;48.65;100561.31;4196247;27;20401;-68
2023/08/30 10:14:07;;;;;;;;;;;;;;;21.75;48.85;100574.44;4196305;28;19928;-63
2023/08/30 10:16:11;;;;;;;;;;;;;;;21.76;48.14;100570.75;4196015;28;19924;-65
2023/08/30 10:18:15;;;;;;;;;;;;;;;21.79;47.59;100565.16;4195336;28;19931;-64
2023/08/30 10:20:17;;;;;;;;;;;;;;;21.69;48.35;100570.47;4196017;28;20023;-62
2023/08/30 10:22:19;;;;;;;;;;;;;;;21.68;48.10;100567.91;4193050;28;19924;-60
2023/08/30 10:24:26;;;;;;;;;;;;;;;21.67;48.28;100580.44;4196159;28;20274;-61
2023/08/30 10:26:41;;;;;;;;;;;;;;;21.72;47.99;100571.19;4196148;28;19925;-60